Pireps
You are here: Olympic Virtual Pireps

Flight OLY602

  • Submitted By: Stavros Sarikas
  • Departure Airport: Eleftherios Venizelos International Airport (LGAV)
  • Arrival Airport: Ioannis Kapodistrias International Airport (LGKR)
  • Aircraft: A320-200 (SX-OAT)
  • Flight Time: 00.58
  • Date Submitted: 11/02/2018
  • Route: IKAD UL53 PARNA
  • Status: Accepted
Flight Details
Gross Revenue:
(116 load / € 60.00 per unit
€ 6, 960.00
Fuel Cost:
(2332 fuel used @ 0.19 / unit)
€ 443.08

Additional Log Information:

View Log

Aircraft Used in flight is Airbus A320 British Airways G-EUUU
15:51 Boarding
15:51 Navigation Lights ON at 320 Feet
15:51 Beacon Lights ON at 320 Feet
15:51 Brakes are On
15:51 Engine 2 Started
15:53 Engine 1 Started
15:54 Brakes are Released
15:54 Pushing back
15:54 Flaps 3 Selected at 320ft and 0kts
15:56 Taxi Lights ON at 320 Feet
15:58 Landing Lights ON at 320 AGL
15:58 Strobe Lights ON at 320 Feet
16:00 You Took off @ 141 Knots and Flaps at Position 3 With a heading of 217 Degrees
Departure Weather LGAV 111320Z 25009KT 200V270 9999 SCT040 15/05 Q1004 NOSIG
Departure Coordinates 37.9308355904139/ 23.9503890298531
Takeoff Weight=61642KG Fuel Weight=6799KG
16:00 Landing Gear Up @ 145 Knots and 390 Feet
16:00 Taxi Lights OFF at 390 Feet
16:02 Flaps 2 Selected at 2160ft and 147kts
16:02 Flaps 0 Selected at 2380ft and 186kts
16:05 Above FL100 you need to switch of the landing lights
16:05 Landing Lights OFF at 10350 AGL
16:07 You exceeded maximum bank angle
16:11 TOC Reached
16:38 Landing Lights ON at 9830 AGL
16:46 Below 10000 feet you are not allowed to go over 250 knots
16:46 Flaps 1 Selected at 2030ft and 247kts
16:46 Flaps 2 Selected at 1420ft and 223kts
16:46 Flaps 3 Selected at 1410ft and 223kts
16:47 Landing Gear Down @ 220 Knots and 1250 Feet
16:47 Taxi Lights ON at 910 Feet
16:47 Flaps 4 Selected at 610ft and 190kts
16:47 Flaps 5 Selected at 420ft and 178kts
16:48 You Landed @ 150 Knots with 2585 Vertical Speed With a heading of 349 and with 1.5952 G Force
Arrival Weather: LGKR 111420Z 31008KT 9999 FEW020 SCT035 10/07 Q1006 NOSIG
Arrival Coordinates 39.5962161555558/ 19.9136087111154
Landing Weight=59592KG Fuel Weight=4747KG
16:48 Taxiing to gate
16:48 Paused
16:49 Landing Lights OFF at 20 AGL
16:49 Strobe Lights OFF at 20 Feet
16:49 Flaps 0 Selected at 20ft and 20kts
Pirep logged with OA Virtual Tracking 1.0.2.6

Route Map